sensor_id;sensor_type;location;lat;lon;timestamp;pressure;altitude;pressure_sealevel;temperature;humidity
41624;BME280;27319;50.306;18.926;2023-04-28T00:01:23;98590.03;;;5.99;70.81
41624;BME280;27319;50.306;18.926;2023-04-28T00:04:23;98589.56;;;5.94;70.55
41624;BME280;27319;50.306;18.926;2023-04-28T00:07:45;98590.34;;;6.06;70.31
41624;BME280;27319;50.306;18.926;2023-04-28T00:11:46;98588.91;;;6.02;71.16
41624;BME280;27319;50.306;18.926;2023-04-28T00:15:48;98587.19;;;5.91;71.86
41624;BME280;27319;50.306;18.926;2023-04-28T00:19:47;98579.81;;;6.04;70.70
41624;BME280;27319;50.306;18.926;2023-04-28T00:23:48;98575.00;;;5.98;70.88
41624;BME280;27319;50.306;18.926;2023-04-28T00:27:49;98581.38;;;6.07;70.65
41624;BME280;27319;50.306;18.926;2023-04-28T00:31:49;98588.66;;;6.05;71.07
41624;BME280;27319;50.306;18.926;2023-04-28T00:35:57;98586.13;;;6.03;70.87
41624;BME280;27319;50.306;18.926;2023-04-28T00:39:54;98581.03;;;6.00;72.26
41624;BME280;27319;50.306;18.926;2023-04-28T00:44:04;98577.09;;;5.95;73.15
41624;BME280;27319;50.306;18.926;2023-04-28T00:48:05;98575.41;;;5.94;72.01
41624;BME280;27319;50.306;18.926;2023-04-28T00:52:05;98577.69;;;5.98;71.24
41624;BME280;27319;50.306;18.926;2023-04-28T00:55:46;98581.91;;;6.01;70.95
41624;BME280;27319;50.306;18.926;2023-04-28T00:59:08;98591.28;;;5.95;71.27
41624;BME280;27319;50.306;18.926;2023-04-28T01:02:50;98586.31;;;5.91;71.33
41624;BME280;27319;50.306;18.926;2023-04-28T01:06:11;98580.41;;;5.87;71.48
41624;BME280;27319;50.306;18.926;2023-04-28T01:10:12;98583.78;;;5.89;71.43
41624;BME280;27319;50.306;18.926;2023-04-28T01:13:48;98583.09;;;5.76;72.17
41624;BME280;27319;50.306;18.926;2023-04-28T01:17:49;98586.50;;;5.78;71.58
41624;BME280;27319;50.306;18.926;2023-04-28T01:21:13;98580.94;;;5.81;71.36
41624;BME280;27319;50.306;18.926;2023-04-28T01:25:14;98580.31;;;5.78;71.27
41624;BME280;27319;50.306;18.926;2023-04-28T01:29:14;98575.38;;;5.84;70.98
41624;BME280;27319;50.306;18.926;2023-04-28T01:33:15;98579.31;;;5.90;70.86
41624;BME280;27319;50.306;18.926;2023-04-28T01:37:16;98579.59;;;5.87;70.72
41624;BME280;27319;50.306;18.926;2023-04-28T01:41:17;98566.56;;;5.73;71.21
41624;BME280;27319;50.306;18.926;2023-04-28T01:45:17;98571.81;;;5.63;71.56
41624;BME280;27319;50.306;18.926;2023-04-28T01:49:18;98580.66;;;5.64;71.32
41624;BME280;27319;50.306;18.926;2023-04-28T01:53:19;98576.63;;;5.69;71.54
41624;BME280;27319;50.306;18.926;2023-04-28T01:57:20;98579.16;;;5.71;71.38
41624;BME280;27319;50.306;18.926;2023-04-28T02:01:20;98579.47;;;5.77;71.16
41624;BME280;27319;50.306;18.926;2023-04-28T02:05:21;98579.41;;;5.68;71.52
41624;BME280;27319;50.306;18.926;2023-04-28T02:09:22;98568.28;;;5.63;71.59
41624;BME280;27319;50.306;18.926;2023-04-28T02:13:22;98560.13;;;5.55;72.09
41624;BME280;27319;50.306;18.926;2023-04-28T02:17:23;98569.22;;;5.52;72.50
41624;BME280;27319;50.306;18.926;2023-04-28T02:21:27;98568.63;;;5.49;72.34
41624;BME280;27319;50.306;18.926;2023-04-28T02:25:28;98575.97;;;5.36;72.99
41624;BME280;27319;50.306;18.926;2023-04-28T02:29:28;98566.41;;;5.33;72.80
41624;BME280;27319;50.306;18.926;2023-04-28T02:33:29;98564.19;;;5.18;73.55
41624;BME280;27319;50.306;18.926;2023-04-28T02:37:30;98561.06;;;5.13;73.54
41624;BME280;27319;50.306;18.926;2023-04-28T02:41:31;98556.63;;;5.23;72.81
41624;BME280;27319;50.306;18.926;2023-04-28T02:45:31;98555.81;;;5.22;72.72
41624;BME280;27319;50.306;18.926;2023-04-28T02:49:32;98546.22;;;4.99;73.23
41624;BME280;27319;50.306;18.926;2023-04-28T02:53:33;98558.75;;;5.08;73.04
41624;BME280;27319;50.306;18.926;2023-04-28T02:57:34;98549.31;;;5.15;72.54
41624;BME280;27319;50.306;18.926;2023-04-28T03:01:34;98550.22;;;5.25;72.51
41624;BME280;27319;50.306;18.926;2023-04-28T03:05:30;98550.97;;;5.27;72.61
41624;BME280;27319;50.306;18.926;2023-04-28T03:09:31;98547.25;;;5.39;71.94
41624;BME280;27319;50.306;18.926;2023-04-28T03:13:32;98542.03;;;5.17;72.48
41624;BME280;27319;50.306;18.926;2023-04-28T03:17:33;98547.59;;;5.14;72.65
41624;BME280;27319;50.306;18.926;2023-04-28T03:21:16;98545.44;;;5.08;72.62
41624;BME280;27319;50.306;18.926;2023-04-28T03:25:17;98538.47;;;4.96;72.79
41624;BME280;27319;50.306;18.926;2023-04-28T03:29:17;98540.16;;;4.97;72.62
41624;BME280;27319;50.306;18.926;2023-04-28T03:33:18;98546.00;;;4.91;73.02
41624;BME280;27319;50.306;18.926;2023-04-28T03:37:19;98545.97;;;5.02;73.12
41624;BME280;27319;50.306;18.926;2023-04-28T03:41:20;98543.31;;;5.02;72.56
41624;BME280;27319;50.306;18.926;2023-04-28T03:45:20;98538.84;;;5.03;72.50
41624;BME280;27319;50.306;18.926;2023-04-28T03:49:21;98536.28;;;5.01;72.47
41624;BME280;27319;50.306;18.926;2023-04-28T03:53:22;98538.25;;;4.99;72.56
41624;BME280;27319;50.306;18.926;2023-04-28T03:57:23;98536.41;;;5.00;72.32
41624;BME280;27319;50.306;18.926;2023-04-28T04:01:23;98541.63;;;5.01;72.65
41624;BME280;27319;50.306;18.926;2023-04-28T04:05:24;98540.41;;;5.05;72.50
41624;BME280;27319;50.306;18.926;2023-04-28T04:09:25;98542.59;;;5.00;72.64
41624;BME280;27319;50.306;18.926;2023-04-28T04:13:26;98548.63;;;5.02;72.97
41624;BME280;27319;50.306;18.926;2023-04-28T04:17:27;98557.34;;;5.04;72.44
41624;BME280;27319;50.306;18.926;2023-04-28T04:21:27;98555.31;;;4.97;73.58
41624;BME280;27319;50.306;18.926;2023-04-28T04:25:29;98565.94;;;4.97;74.03
41624;BME280;27319;50.306;18.926;2023-04-28T04:29:29;98566.53;;;5.00;74.31
41624;BME280;27319;50.306;18.926;2023-04-28T04:33:30;98566.88;;;5.07;73.89
41624;BME280;27319;50.306;18.926;2023-04-28T04:37:11;98577.53;;;5.07;74.62
41624;BME280;27319;50.306;18.926;2023-04-28T04:41:12;98573.47;;;5.23;73.94
41624;BME280;27319;50.306;18.926;2023-04-28T04:45:12;98575.06;;;5.15;75.16
41624;BME280;27319;50.306;18.926;2023-04-28T04:49:13;98576.59;;;5.28;74.84
41624;BME280;27319;50.306;18.926;2023-04-28T04:53:14;98560.56;;;5.39;73.55
41624;BME280;27319;50.306;18.926;2023-04-28T04:57:15;98567.00;;;5.57;73.30
41624;BME280;27319;50.306;18.926;2023-04-28T05:00:55;98563.53;;;5.46;75.01
41624;BME280;27319;50.306;18.926;2023-04-28T05:04:16;98561.88;;;5.45;74.13
41624;BME280;27319;50.306;18.926;2023-04-28T05:08:17;98564.53;;;5.65;72.56
41624;BME280;27319;50.306;18.926;2023-04-28T05:11:58;98568.06;;;5.86;71.65
41624;BME280;27319;50.306;18.926;2023-04-28T05:15:18;98569.75;;;5.87;72.19
41624;BME280;27319;50.306;18.926;2023-04-28T05:19:19;98567.81;;;6.10;72.47
41624;BME280;27319;50.306;18.926;2023-04-28T05:23:20;98567.66;;;6.41;74.01
41624;BME280;27319;50.306;18.926;2023-04-28T05:27:21;98565.31;;;6.57;70.59
41624;BME280;27319;50.306;18.926;2023-04-28T05:31:22;98564.97;;;6.71;72.83
41624;BME280;27319;50.306;18.926;2023-04-28T05:35:22;98573.97;;;6.89;69.32
41624;BME280;27319;50.306;18.926;2023-04-28T05:39:24;98573.13;;;6.98;70.05
41624;BME280;27319;50.306;18.926;2023-04-28T05:43:24;98576.41;;;7.11;69.67
41624;BME280;27319;50.306;18.926;2023-04-28T05:47:25;98575.56;;;7.20;67.69
41624;BME280;27319;50.306;18.926;2023-04-28T05:51:26;98567.56;;;7.20;66.98
41624;BME280;27319;50.306;18.926;2023-04-28T05:55:26;98560.97;;;7.24;69.26
41624;BME280;27319;50.306;18.926;2023-04-28T05:59:27;98567.84;;;7.36;67.56
41624;BME280;27319;50.306;18.926;2023-04-28T06:03:28;98573.75;;;7.40;68.00
41624;BME280;27319;50.306;18.926;2023-04-28T06:07:29;98576.72;;;7.56;65.62
41624;BME280;27319;50.306;18.926;2023-04-28T06:11:29;98574.16;;;7.73;66.10
41624;BME280;27319;50.306;18.926;2023-04-28T06:15:31;98578.66;;;7.82;64.98
41624;BME280;27319;50.306;18.926;2023-04-28T06:19:31;98578.06;;;7.98;64.22
41624;BME280;27319;50.306;18.926;2023-04-28T06:23:15;98581.41;;;8.09;64.80
41624;BME280;27319;50.306;18.926;2023-04-28T06:27:16;98573.38;;;8.28;64.32
41624;BME280;27319;50.306;18.926;2023-04-28T06:31:17;98569.09;;;8.35;62.90
41624;BME280;27319;50.306;18.926;2023-04-28T06:35:17;98573.28;;;8.47;60.75
41624;BME280;27319;50.306;18.926;2023-04-28T06:39:18;98580.75;;;8.44;63.34
41624;BME280;27319;50.306;18.926;2023-04-28T06:43:19;98578.22;;;8.42;62.09
41624;BME280;27319;50.306;18.926;2023-04-28T06:47:20;98582.16;;;8.48;59.80
41624;BME280;27319;50.306;18.926;2023-04-28T06:51:20;98576.88;;;8.65;57.53
41624;BME280;27319;50.306;18.926;2023-04-28T06:55:21;98577.84;;;8.64;57.60
41624;BME280;27319;50.306;18.926;2023-04-28T06:59:22;98561.13;;;8.89;58.17
41624;BME280;27319;50.306;18.926;2023-04-28T07:03:03;98566.81;;;9.04;58.10
41624;BME280;27319;50.306;18.926;2023-04-28T07:06:24;98559.16;;;9.09;55.96
41624;BME280;27319;50.306;18.926;2023-04-28T07:10:25;98554.88;;;9.33;56.64
41624;BME280;27319;50.306;18.926;2023-04-28T07:14:25;98558.28;;;9.35;55.37
41624;BME280;27319;50.306;18.926;2023-04-28T07:18:26;98543.63;;;9.65;55.75
41624;BME280;27319;50.306;18.926;2023-04-28T07:22:07;98544.75;;;9.80;53.84
41624;BME280;27319;50.306;18.926;2023-04-28T07:25:28;98542.22;;;9.78;53.13
41624;BME280;27319;50.306;18.926;2023-04-28T07:29:29;98546.22;;;10.00;54.21
41624;BME280;27319;50.306;18.926;2023-04-28T07:33:29;98546.16;;;10.09;51.79
41624;BME280;27319;50.306;18.926;2023-04-28T07:37:30;98535.16;;;10.20;53.54
41624;BME280;27319;50.306;18.926;2023-04-28T07:41:35;98540.31;;;10.39;51.53
41624;BME280;27319;50.306;18.926;2023-04-28T07:45:31;98535.31;;;10.44;50.82
41624;BME280;27319;50.306;18.926;2023-04-28T07:49:12;98535.38;;;10.60;50.21
41624;BME280;27319;50.306;18.926;2023-04-28T07:52:33;98537.31;;;10.76;50.60
41624;BME280;27319;50.306;18.926;2023-04-28T07:56:34;98529.78;;;10.79;50.18
41624;BME280;27319;50.306;18.926;2023-04-28T08:00:34;98528.84;;;11.04;48.51
41624;BME280;27319;50.306;18.926;2023-04-28T08:04:15;98533.38;;;11.11;48.16
41624;BME280;27319;50.306;18.926;2023-04-28T08:07:36;98521.16;;;11.33;49.06
41624;BME280;27319;50.306;18.926;2023-04-28T08:11:37;98521.06;;;11.58;48.62
41624;BME280;27319;50.306;18.926;2023-04-28T08:15:38;98529.28;;;11.89;47.56
41624;BME280;27319;50.306;18.926;2023-04-28T08:19:19;98530.97;;;11.90;45.14
41624;BME280;27319;50.306;18.926;2023-04-28T08:22:40;98526.75;;;11.87;45.24
41624;BME280;27319;50.306;18.926;2023-04-28T08:26:40;98517.16;;;12.01;43.31
41624;BME280;27319;50.306;18.926;2023-04-28T08:30:41;98517.16;;;12.17;45.30
41624;BME280;27319;50.306;18.926;2023-04-28T08:34:42;98513.44;;;12.10;45.28
41624;BME280;27319;50.306;18.926;2023-04-28T08:38:43;98517.44;;;12.30;46.44
41624;BME280;27319;50.306;18.926;2023-04-28T08:42:43;98504.66;;;12.24;45.94
41624;BME280;27319;50.306;18.926;2023-04-28T08:46:44;98503.56;;;12.57;42.24
41624;BME280;27319;50.306;18.926;2023-04-28T08:50:48;98504.31;;;12.35;42.24
41624;BME280;27319;50.306;18.926;2023-04-28T08:54:45;98491.59;;;12.59;43.01
41624;BME280;27319;50.306;18.926;2023-04-28T08:58:46;98496.84;;;12.53;42.30
41624;BME280;27319;50.306;18.926;2023-04-28T09:02:47;98492.78;;;12.57;42.34
41624;BME280;27319;50.306;18.926;2023-04-28T09:06:54;98493.50;;;13.20;45.52
41624;BME280;27319;50.306;18.926;2023-04-28T09:11:04;98479.72;;;13.15;42.11
41624;BME280;27319;50.306;18.926;2023-04-28T09:15:01;98476.97;;;13.23;42.52
41624;BME280;27319;50.306;18.926;2023-04-28T09:19:02;98488.66;;;13.38;44.03
41624;BME280;27319;50.306;18.926;2023-04-28T09:23:13;98481.06;;;13.78;43.17
41624;BME280;27319;50.306;18.926;2023-04-28T09:27:15;98476.06;;;13.90;44.49
41624;BME280;27319;50.306;18.926;2023-04-28T09:31:22;98480.50;;;13.83;43.67
41624;BME280;27319;50.306;18.926;2023-04-28T09:35:37;98468.22;;;13.43;42.14
41624;BME280;27319;50.306;18.926;2023-04-28T09:39:31;98465.38;;;13.59;43.22
41624;BME280;27319;50.306;18.926;2023-04-28T09:43:42;98451.78;;;13.90;43.08
41624;BME280;27319;50.306;18.926;2023-04-28T09:47:44;98455.31;;;13.90;42.26
41624;BME280;27319;50.306;18.926;2023-04-28T09:51:45;98456.09;;;14.13;41.43
41624;BME280;27319;50.306;18.926;2023-04-28T09:55:45;98445.53;;;14.41;42.93
41624;BME280;27319;50.306;18.926;2023-04-28T09:59:48;98439.13;;;14.63;42.17
41624;BME280;27319;50.306;18.926;2023-04-28T10:03:47;98432.00;;;14.91;42.07
41624;BME280;27319;50.306;18.926;2023-04-28T10:07:48;98430.97;;;14.92;41.77
41624;BME280;27319;50.306;18.926;2023-04-28T10:11:48;98431.31;;;14.68;42.63
41624;BME280;27319;50.306;18.926;2023-04-28T10:15:49;98424.47;;;14.22;40.27
41624;BME280;27319;50.306;18.926;2023-04-28T10:19:51;98412.88;;;13.99;39.86
41624;BME280;27319;50.306;18.926;2023-04-28T10:27:43;98420.69;;;14.81;40.38
41624;BME280;27319;50.306;18.926;2023-04-28T10:39:27;98402.41;;;15.67;41.81
41624;BME280;27319;50.306;18.926;2023-04-28T10:46:59;98393.78;;;16.12;40.39
41624;BME280;27319;50.306;18.926;2023-04-28T10:50:24;98392.97;;;16.52;40.11
41624;BME280;27319;50.306;18.926;2023-04-28T10:54:27;98380.47;;;16.17;37.81
41624;BME280;27319;50.306;18.926;2023-04-28T11:01:55;98360.94;;;16.62;40.89
41624;BME280;27319;50.306;18.926;2023-04-28T11:05:35;98359.72;;;16.71;35.96
41624;BME280;27319;50.306;18.926;2023-04-28T11:20:39;98337.91;;;16.38;37.38
41624;BME280;27319;50.306;18.926;2023-04-28T11:24:40;98346.19;;;16.90;38.12
41624;BME280;27319;50.306;18.926;2023-04-28T11:28:50;98334.31;;;16.98;37.24
41624;BME280;27319;50.306;18.926;2023-04-28T11:32:50;98338.19;;;16.63;38.49
41624;BME280;27319;50.306;18.926;2023-04-28T11:39:54;98338.84;;;16.71;35.54
41624;BME280;27319;50.306;18.926;2023-04-28T11:43:55;98328.28;;;17.22;36.53
41624;BME280;27319;50.306;18.926;2023-04-28T11:47:56;98327.94;;;17.64;36.53
41624;BME280;27319;50.306;18.926;2023-04-28T11:51:57;98325.63;;;17.48;35.20
41624;BME280;27319;50.306;18.926;2023-04-28T11:56:04;98333.97;;;17.66;33.99
41624;BME280;27319;50.306;18.926;2023-04-28T11:59:33;98330.34;;;18.04;32.18
41624;BME280;27319;50.306;18.926;2023-04-28T12:03:14;98324.56;;;17.68;33.47
41624;BME280;27319;50.306;18.926;2023-04-28T12:06:37;98318.13;;;17.63;33.92
41624;BME280;27319;50.306;18.926;2023-04-28T12:10:38;98312.44;;;17.90;37.18
41624;BME280;27319;50.306;18.926;2023-04-28T12:14:57;98310.41;;;18.30;35.86
41624;BME280;27319;50.306;18.926;2023-04-28T12:18:37;98317.91;;;18.85;33.79
41624;BME280;27319;50.306;18.926;2023-04-28T12:22:44;98307.41;;;19.19;34.29
41624;BME280;27319;50.306;18.926;2023-04-28T12:26:44;98304.53;;;19.14;31.12
41624;BME280;27319;50.306;18.926;2023-04-28T12:30:44;98294.28;;;19.16;30.81
41624;BME280;27319;50.306;18.926;2023-04-28T12:34:45;98288.22;;;19.63;29.12
41624;BME280;27319;50.306;18.926;2023-04-28T12:38:46;98280.16;;;19.32;30.52
41624;BME280;27319;50.306;18.926;2023-04-28T12:42:47;98279.91;;;19.34;33.82
41624;BME280;27319;50.306;18.926;2023-04-28T12:46:48;98272.50;;;20.08;35.81
41624;BME280;27319;50.306;18.926;2023-04-28T12:50:48;98272.88;;;20.59;32.11
41624;BME280;27319;50.306;18.926;2023-04-28T12:54:49;98262.56;;;20.61;31.87
41624;BME280;27319;50.306;18.926;2023-04-28T12:58:50;98255.22;;;20.61;31.80
41624;BME280;27319;50.306;18.926;2023-04-28T13:02:30;98252.16;;;20.69;32.65
41624;BME280;27319;50.306;18.926;2023-04-28T13:05:51;98255.00;;;20.63;32.79
41624;BME280;27319;50.306;18.926;2023-04-28T13:09:51;98250.34;;;21.34;31.77
41624;BME280;27319;50.306;18.926;2023-04-28T13:13:52;98250.16;;;21.70;31.52
41624;BME280;27319;50.306;18.926;2023-04-28T13:17:53;98247.19;;;21.83;28.62
41624;BME280;27319;50.306;18.926;2023-04-28T13:21:54;98245.28;;;21.95;31.33
41624;BME280;27319;50.306;18.926;2023-04-28T13:25:55;98231.38;;;21.62;32.70
41624;BME280;27319;50.306;18.926;2023-04-28T13:28:59;98227.34;;;21.76;30.96
41624;BME280;27319;50.306;18.926;2023-04-28T13:32:04;98218.75;;;21.95;30.97
41624;BME280;27319;50.306;18.926;2023-04-28T13:36:05;98218.16;;;21.59;30.03
41624;BME280;27319;50.306;18.926;2023-04-28T13:40:06;98230.31;;;22.37;31.66
41624;BME280;27319;50.306;18.926;2023-04-28T13:44:07;98224.63;;;22.66;28.33
41624;BME280;27319;50.306;18.926;2023-04-28T13:48:03;98205.97;;;22.24;28.55
41624;BME280;27319;50.306;18.926;2023-04-28T13:52:04;98209.69;;;22.18;30.03
41624;BME280;27319;50.306;18.926;2023-04-28T13:56:05;98211.44;;;22.24;27.93
41624;BME280;27319;50.306;18.926;2023-04-28T14:00:06;98209.78;;;22.62;26.78
41624;BME280;27319;50.306;18.926;2023-04-28T14:04:06;98208.03;;;22.56;30.40
41624;BME280;27319;50.306;18.926;2023-04-28T14:08:08;98205.72;;;22.25;27.53
41624;BME280;27319;50.306;18.926;2023-04-28T14:12:08;98191.41;;;22.07;29.51
41624;BME280;27319;50.306;18.926;2023-04-28T14:16:12;98188.25;;;21.52;29.57
41624;BME280;27319;50.306;18.926;2023-04-28T14:20:12;98183.41;;;21.43;28.58
41624;BME280;27319;50.306;18.926;2023-04-28T14:24:13;98181.22;;;20.99;27.12
41624;BME280;27319;50.306;18.926;2023-04-28T14:28:14;98177.13;;;21.31;28.84
41624;BME280;27319;50.306;18.926;2023-04-28T14:32:15;98172.34;;;21.38;29.20
41624;BME280;27319;50.306;18.926;2023-04-28T14:36:15;98172.09;;;21.39;29.78
41624;BME280;27319;50.306;18.926;2023-04-28T14:40:16;98172.78;;;20.89;27.98
41624;BME280;27319;50.306;18.926;2023-04-28T14:44:17;98170.22;;;21.17;30.21
41624;BME280;27319;50.306;18.926;2023-04-28T14:48:18;98170.47;;;20.63;29.16
41624;BME280;27319;50.306;18.926;2023-04-28T14:52:19;98167.03;;;20.38;29.36
41624;BME280;27319;50.306;18.926;2023-04-28T14:55:59;98162.34;;;20.15;29.14
41624;BME280;27319;50.306;18.926;2023-04-28T14:59:20;98155.75;;;20.23;30.34
41624;BME280;27319;50.306;18.926;2023-04-28T15:03:21;98151.44;;;19.97;30.42
41624;BME280;27319;50.306;18.926;2023-04-28T15:07:22;98157.06;;;19.66;30.71
41624;BME280;27319;50.306;18.926;2023-04-28T15:11:22;98145.72;;;19.69;31.01
41624;BME280;27319;50.306;18.926;2023-04-28T15:15:23;98141.38;;;19.80;32.04
41624;BME280;27319;50.306;18.926;2023-04-28T15:19:24;98139.94;;;19.77;31.97
41624;BME280;27319;50.306;18.926;2023-04-28T15:23:25;98142.47;;;19.79;33.39
41624;BME280;27319;50.306;18.926;2023-04-28T15:27:25;98133.06;;;19.75;30.42
41624;BME280;27319;50.306;18.926;2023-04-28T15:31:26;98128.66;;;19.20;32.11
41624;BME280;27319;50.306;18.926;2023-04-28T15:35:27;98119.03;;;19.24;36.40
41624;BME280;27319;50.306;18.926;2023-04-28T15:39:28;98113.16;;;19.20;35.69
41624;BME280;27319;50.306;18.926;2023-04-28T15:43:29;98107.72;;;19.20;36.04
41624;BME280;27319;50.306;18.926;2023-04-28T15:47:30;98108.06;;;19.06;32.49
41624;BME280;27319;50.306;18.926;2023-04-28T15:51:10;98103.50;;;18.82;35.25
41624;BME280;27319;50.306;18.926;2023-04-28T15:54:11;98103.84;;;18.67;33.70
41624;BME280;27319;50.306;18.926;2023-04-28T15:57:32;98102.94;;;18.49;34.29
41624;BME280;27319;50.306;18.926;2023-04-28T16:01:33;98087.97;;;18.40;35.11
41624;BME280;27319;50.306;18.926;2023-04-28T16:05:11;98089.31;;;18.24;34.06
41624;BME280;27319;50.306;18.926;2023-04-28T16:08:31;98088.94;;;18.21;35.98
41624;BME280;27319;50.306;18.926;2023-04-28T16:12:32;98079.94;;;18.20;36.74
41624;BME280;27319;50.306;18.926;2023-04-28T16:16:33;98084.44;;;18.02;39.31
41624;BME280;27319;50.306;18.926;2023-04-28T16:20:14;98088.31;;;17.88;39.08
41624;BME280;27319;50.306;18.926;2023-04-28T16:23:34;98078.63;;;17.61;40.30
41624;BME280;27319;50.306;18.926;2023-04-28T16:27:35;98078.44;;;17.56;41.28
41624;BME280;27319;50.306;18.926;2023-04-28T16:31:36;98074.34;;;17.27;42.31
41624;BME280;27319;50.306;18.926;2023-04-28T16:35:17;98073.91;;;17.37;42.05
41624;BME280;27319;50.306;18.926;2023-04-28T16:38:18;98062.03;;;17.31;42.57
41624;BME280;27319;50.306;18.926;2023-04-28T16:41:39;98060.19;;;17.25;40.66
41624;BME280;27319;50.306;18.926;2023-04-28T16:45:40;98059.16;;;17.20;42.23
41624;BME280;27319;50.306;18.926;2023-04-28T16:49:36;98056.53;;;16.94;43.54
41624;BME280;27319;50.306;18.926;2023-04-28T16:53:21;98055.28;;;16.90;41.83
41624;BME280;27319;50.306;18.926;2023-04-28T16:56:42;98042.56;;;16.77;42.48
41624;BME280;27319;50.306;18.926;2023-04-28T17:00:43;98043.22;;;16.66;42.63
41624;BME280;27319;50.306;18.926;2023-04-28T17:04:24;98042.59;;;16.58;42.69
41624;BME280;27319;50.306;18.926;2023-04-28T17:07:45;98045.13;;;16.46;43.44
41624;BME280;27319;50.306;18.926;2023-04-28T17:11:05;98043.06;;;16.42;44.33
41624;BME280;27319;50.306;18.926;2023-04-28T17:14:13;98044.88;;;16.35;45.26
41624;BME280;27319;50.306;18.926;2023-04-28T17:17:34;98033.88;;;16.23;46.16
41624;BME280;27319;50.306;18.926;2023-04-28T17:21:35;98035.94;;;16.15;45.89
41624;BME280;27319;50.306;18.926;2023-04-28T17:25:36;98034.47;;;15.93;46.85
41624;BME280;27319;50.306;18.926;2023-04-28T17:29:37;98036.75;;;15.76;46.96
41624;BME280;27319;50.306;18.926;2023-04-28T17:33:37;98042.75;;;15.72;47.26
41624;BME280;27319;50.306;18.926;2023-04-28T17:37:38;98050.06;;;15.71;42.83
41624;BME280;27319;50.306;18.926;2023-04-28T17:41:39;98052.69;;;15.58;44.24
41624;BME280;27319;50.306;18.926;2023-04-28T17:45:20;98057.50;;;15.50;44.02
41624;BME280;27319;50.306;18.926;2023-04-28T17:48:28;98060.97;;;15.44;44.65
41624;BME280;27319;50.306;18.926;2023-04-28T17:51:49;98058.66;;;15.34;44.91
41624;BME280;27319;50.306;18.926;2023-04-28T17:55:50;98057.16;;;15.32;45.10
41624;BME280;27319;50.306;18.926;2023-04-28T17:59:51;98062.56;;;15.25;45.72
41624;BME280;27319;50.306;18.926;2023-04-28T18:03:55;98061.09;;;15.23;45.01
41624;BME280;27319;50.306;18.926;2023-04-28T18:07:58;98064.75;;;15.09;47.85
41624;BME280;27319;50.306;18.926;2023-04-28T18:11:56;98065.78;;;15.08;46.00
41624;BME280;27319;50.306;18.926;2023-04-28T18:15:57;98062.28;;;15.07;46.30
41624;BME280;27319;50.306;18.926;2023-04-28T18:19:58;98069.06;;;14.97;47.11
41624;BME280;27319;50.306;18.926;2023-04-28T18:23:59;98062.59;;;14.91;46.71
41624;BME280;27319;50.306;18.926;2023-04-28T18:27:57;98064.47;;;14.91;46.63
41624;BME280;27319;50.306;18.926;2023-04-28T18:31:17;98063.50;;;14.71;46.83
41624;BME280;27319;50.306;18.926;2023-04-28T18:35:18;98070.16;;;14.68;48.09
41624;BME280;27319;50.306;18.926;2023-04-28T18:39:19;98071.72;;;14.56;48.62
41624;BME280;27319;50.306;18.926;2023-04-28T18:43:20;98074.00;;;14.53;49.42
41624;BME280;27319;50.306;18.926;2023-04-28T18:47:20;98071.06;;;14.54;49.96
41624;BME280;27319;50.306;18.926;2023-04-28T18:51:01;98078.72;;;14.44;50.34
41624;BME280;27319;50.306;18.926;2023-04-28T18:54:22;98075.25;;;14.29;49.10
41624;BME280;27319;50.306;18.926;2023-04-28T18:58:24;98081.94;;;14.33;50.58
41624;BME280;27319;50.306;18.926;2023-04-28T19:02:05;98079.81;;;14.29;51.11
41624;BME280;27319;50.306;18.926;2023-04-28T19:05:26;98082.50;;;14.29;50.48
41624;BME280;27319;50.306;18.926;2023-04-28T19:09:26;98084.31;;;14.22;51.09
41624;BME280;27319;50.306;18.926;2023-04-28T19:13:27;98074.69;;;14.13;50.91
41624;BME280;27319;50.306;18.926;2023-04-28T19:17:28;98087.31;;;14.12;51.83
41624;BME280;27319;50.306;18.926;2023-04-28T19:21:09;98084.19;;;14.09;52.94
41624;BME280;27319;50.306;18.926;2023-04-28T19:24:33;98091.19;;;14.03;52.01
41624;BME280;27319;50.306;18.926;2023-04-28T19:28:34;98082.75;;;13.92;52.36
41624;BME280;27319;50.306;18.926;2023-04-28T19:32:34;98074.59;;;13.85;52.21
41624;BME280;27319;50.306;18.926;2023-04-28T19:36:22;98072.88;;;13.78;52.23
41624;BME280;27319;50.306;18.926;2023-04-28T19:39:43;98065.34;;;13.73;52.43
41624;BME280;27319;50.306;18.926;2023-04-28T19:43:44;98061.75;;;13.66;52.31
41624;BME280;27319;50.306;18.926;2023-04-28T19:47:45;98068.94;;;13.59;53.83
41624;BME280;27319;50.306;18.926;2023-04-28T19:51:46;98057.81;;;13.48;53.54
41624;BME280;27319;50.306;18.926;2023-04-28T19:55:46;98065.53;;;13.51;54.76
41624;BME280;27319;50.306;18.926;2023-04-28T19:59:47;98057.00;;;13.47;55.26
41624;BME280;27319;50.306;18.926;2023-04-28T20:03:48;98056.53;;;13.44;55.38
41624;BME280;27319;50.306;18.926;2023-04-28T20:07:49;98057.50;;;13.36;55.02
41624;BME280;27319;50.306;18.926;2023-04-28T20:11:50;98048.59;;;13.21;55.84
41624;BME280;27319;50.306;18.926;2023-04-28T20:15:50;98052.97;;;13.08;56.07
41624;BME280;27319;50.306;18.926;2023-04-28T20:19:51;98051.03;;;13.02;56.70
41624;BME280;27319;50.306;18.926;2023-04-28T20:23:36;98048.91;;;12.97;56.80
41624;BME280;27319;50.306;18.926;2023-04-28T20:26:57;98043.41;;;12.91;57.31
41624;BME280;27319;50.306;18.926;2023-04-28T20:30:58;98048.91;;;12.83;57.73
41624;BME280;27319;50.306;18.926;2023-04-28T20:34:59;98044.91;;;12.79;57.44
41624;BME280;27319;50.306;18.926;2023-04-28T20:38:59;98045.63;;;12.73;58.16
41624;BME280;27319;50.306;18.926;2023-04-28T20:42:59;98050.09;;;12.51;56.99
41624;BME280;27319;50.306;18.926;2023-04-28T20:46:40;98054.00;;;12.49;57.99
41624;BME280;27319;50.306;18.926;2023-04-28T20:50:01;98055.34;;;12.30;57.39
41624;BME280;27319;50.306;18.926;2023-04-28T20:54:01;98048.09;;;12.16;58.65
41624;BME280;27319;50.306;18.926;2023-04-28T20:58:02;98044.41;;;12.17;57.93